createdAt,value
2022-08-17T00:00:43.402Z,97751.13
2022-08-17T00:03:41.915Z,97755.94
2022-08-17T00:06:36.803Z,97750.44
2022-08-17T00:09:25.694Z,97755.16
2022-08-17T00:12:41.620Z,97748.44
2022-08-17T00:15:24.065Z,97754.91
2022-08-17T00:18:58.300Z,97755.75
2022-08-17T00:21:23.772Z,97763.16
2022-08-17T00:24:07.076Z,97759.22
2022-08-17T00:26:55.783Z,97756.53
2022-08-17T00:29:38.813Z,97759.91
2022-08-17T00:33:11.611Z,97757.84
2022-08-17T00:35:38.683Z,97761.34
2022-08-17T00:38:28.213Z,97765.78
2022-08-17T00:41:16.713Z,97759.03
2022-08-17T00:44:19.670Z,97767.16
2022-08-17T00:47:08.692Z,97771.03
2022-08-17T00:49:51.141Z,97763.09
2022-08-17T00:52:44.942Z,97769.31
2022-08-17T00:55:28.353Z,97778.78
2022-08-17T00:58:18.037Z,97780.44
2022-08-17T01:01:21.689Z,97789.91
2022-08-17T01:04:13.084Z,97795.44
2022-08-17T01:06:57.106Z,97795.81
2022-08-17T01:09:46.100Z,97809.84
2022-08-17T01:12:29.676Z,97805.69
2022-08-17T01:15:20.102Z,97802.47
2022-08-17T01:18:02.097Z,97810.91
2022-08-17T01:20:59.021Z,97820.75
2022-08-17T01:23:49.968Z,97829.00
2022-08-17T01:26:40.933Z,97826.47
2022-08-17T01:29:24.812Z,97830.75
2022-08-17T01:32:15.723Z,97826.81
2022-08-17T01:34:58.175Z,97834.53
2022-08-17T01:37:48.930Z,97831.38
2022-08-17T01:40:40.186Z,97840.16
2022-08-17T01:43:35.785Z,97843.09
2022-08-17T01:46:29.681Z,97832.44
2022-08-17T01:49:21.035Z,97830.78
2022-08-17T01:52:04.309Z,97830.53
2022-08-17T01:54:55.034Z,97830.69
2022-08-17T01:57:37.331Z,97820.81
2022-08-17T02:00:27.130Z,97830.16
2022-08-17T02:03:31.121Z,97825.66
2022-08-17T02:06:27.602Z,97832.81
2022-08-17T02:09:12.208Z,97833.59
2022-08-17T02:12:38.043Z,97821.78
2022-08-17T02:15:18.060Z,97825.50
2022-08-17T02:18:06.792Z,97828.69
2022-08-17T02:20:56.693Z,97825.28
2022-08-17T02:23:49.075Z,97838.41
2022-08-17T02:26:31.031Z,97837.44
2022-08-17T02:29:20.075Z,97829.00
2022-08-17T02:32:02.592Z,97825.78
2022-08-17T02:34:50.803Z,97823.06
2022-08-17T02:37:34.249Z,97812.81
2022-08-17T02:40:32.838Z,97829.78
2022-08-17T02:43:18.307Z,97816.69
2022-08-17T02:46:13.029Z,97817.25
2022-08-17T02:49:01.788Z,97822.63
2022-08-17T02:51:44.134Z,97818.00
2022-08-17T02:54:40.267Z,97818.91
2022-08-17T02:57:31.460Z,97831.34
2022-08-17T03:00:18.499Z,97833.91
2022-08-17T03:03:08.066Z,97844.97
2022-08-17T03:05:54.476Z,97846.09
2022-08-17T03:08:42.793Z,97849.19
2022-08-17T03:11:25.234Z,97859.19
2022-08-17T03:14:13.777Z,97850.31
2022-08-17T03:16:55.981Z,97856.75
2022-08-17T03:19:44.947Z,97854.44
2022-08-17T03:22:38.245Z,97857.22
2022-08-17T03:25:27.110Z,97865.47
2022-08-17T03:28:16.927Z,97858.00
2022-08-17T03:30:59.899Z,97855.97
2022-08-17T03:33:49.032Z,97867.41
2022-08-17T03:36:31.113Z,97867.09
2022-08-17T03:39:25.050Z,97866.16
2022-08-17T03:42:32.085Z,97865.50
2022-08-17T03:45:25.041Z,97869.97
2022-08-17T03:48:25.805Z,97868.44
2022-08-17T03:51:33.578Z,97861.88
2022-08-17T03:54:34.403Z,97863.22
2022-08-17T03:57:22.776Z,97860.28
2022-08-17T04:00:05.717Z,97869.69
2022-08-17T04:02:55.036Z,97867.84
2022-08-17T04:05:37.346Z,97863.06
2022-08-17T04:08:25.781Z,97861.28
2022-08-17T04:11:09.069Z,97875.38
2022-08-17T04:13:57.776Z,97869.03
2022-08-17T04:16:42.059Z,97875.16
2022-08-17T04:19:31.041Z,97869.94
2022-08-17T04:22:30.508Z,97883.00
2022-08-17T04:25:27.078Z,97878.38
2022-08-17T04:28:16.204Z,97876.72
2022-08-17T04:31:04.817Z,97876.19
2022-08-17T04:33:49.337Z,97870.28
2022-08-17T04:36:37.759Z,97883.81
2022-08-17T04:39:27.057Z,97881.41
2022-08-17T04:42:17.943Z,97886.94
2022-08-17T04:45:06.840Z,97880.22
2022-08-17T04:47:56.291Z,97882.63
2022-08-17T04:50:38.037Z,97879.06
2022-08-17T04:53:20.954Z,97878.22
2022-08-17T04:56:11.638Z,97889.66
2022-08-17T04:59:09.574Z,97879.06
2022-08-17T05:01:59.689Z,97880.66
2022-08-17T05:04:48.685Z,97878.47
2022-08-17T05:07:38.008Z,97875.84
2022-08-17T05:10:20.974Z,97879.69
2022-08-17T05:13:17.444Z,97878.19
2022-08-17T05:16:08.775Z,97874.34
2022-08-17T05:18:50.955Z,97868.56
2022-08-17T05:21:39.926Z,97872.66
2022-08-17T05:24:42.879Z,97875.28
2022-08-17T05:27:32.877Z,97880.19
2022-08-17T05:30:17.203Z,97871.06
2022-08-17T05:33:09.000Z,97878.44
2022-08-17T05:35:54.364Z,97871.88
2022-08-17T05:38:42.778Z,97876.25
2022-08-17T05:41:25.046Z,97869.00
2022-08-17T05:44:14.105Z,97867.88
2022-08-17T05:47:03.200Z,97871.78
2022-08-17T05:49:44.791Z,97865.47
2022-08-17T05:52:49.293Z,97868.94
2022-08-17T05:55:47.050Z,97857.94
2022-08-17T05:58:46.372Z,97854.69
2022-08-17T06:01:58.037Z,97850.47
2022-08-17T06:05:17.348Z,97839.69
2022-08-17T06:08:14.070Z,97841.38
2022-08-17T06:11:17.216Z,97845.53
2022-08-17T06:14:27.780Z,97838.19
2022-08-17T06:17:22.903Z,97837.25
2022-08-17T06:20:14.927Z,97841.56
2022-08-17T06:23:05.120Z,97832.59
2022-08-17T06:26:08.932Z,97824.28
2022-08-17T06:29:03.895Z,97825.56
2022-08-17T06:31:57.793Z,97826.00
2022-08-17T06:34:41.170Z,97826.22
2022-08-17T06:38:34.963Z,97816.63
2022-08-17T06:41:38.839Z,97815.97
2022-08-17T06:44:43.508Z,97817.03
2022-08-17T06:47:49.928Z,97814.50
2022-08-17T06:50:51.334Z,97805.13
2022-08-17T06:53:52.793Z,97809.09
2022-08-17T06:56:55.467Z,97806.03
2022-08-17T06:59:55.456Z,97806.72
2022-08-17T07:03:32.693Z,97793.50
2022-08-17T07:06:25.302Z,97790.09
2022-08-17T07:09:45.774Z,97792.41
2022-08-17T07:12:44.924Z,97786.72
2022-08-17T07:15:46.699Z,97781.44
2022-08-17T07:18:39.148Z,97786.44
2022-08-17T07:21:56.774Z,97779.34
2022-08-17T07:24:50.061Z,97773.34
2022-08-17T07:27:44.942Z,97780.03
2022-08-17T07:30:30.063Z,97784.19
2022-08-17T07:33:25.939Z,97771.03
2022-08-17T07:36:08.060Z,97765.75
2022-08-17T07:39:06.006Z,97783.31
2022-08-17T07:41:59.102Z,97770.44
2022-08-17T07:45:02.038Z,97771.91
2022-08-17T07:48:24.639Z,97770.56
2022-08-17T07:51:35.752Z,97765.03
2022-08-17T07:54:24.117Z,97764.31
2022-08-17T07:57:24.366Z,97765.53
2022-08-17T08:00:16.227Z,97765.13
2022-08-17T08:03:36.759Z,97758.50
2022-08-17T08:06:32.315Z,97767.44
2022-08-17T08:09:37.107Z,97759.63
2022-08-17T08:12:48.300Z,97754.66
2022-08-17T08:15:57.009Z,97753.56
2022-08-17T08:18:55.506Z,97757.56
2022-08-17T08:22:00.016Z,97755.22
2022-08-17T08:24:45.313Z,97753.13
2022-08-17T08:27:46.028Z,97754.00
2022-08-17T08:30:29.545Z,97747.84
2022-08-17T08:33:57.019Z,97748.28
2022-08-17T08:37:17.792Z,97748.81
2022-08-17T08:41:06.019Z,97742.81
2022-08-17T08:44:04.666Z,97743.63
2022-08-17T08:47:03.016Z,97740.34
2022-08-17T08:50:37.524Z,97739.66
2022-08-17T08:53:51.061Z,97722.56
2022-08-17T08:57:11.534Z,97730.88
2022-08-17T09:00:13.035Z,97738.09
2022-08-17T09:03:28.088Z,97732.03
2022-08-17T09:06:49.773Z,97723.72
2022-08-17T09:09:59.993Z,97720.88
2022-08-17T09:13:09.495Z,97720.09
2022-08-17T09:16:06.930Z,97718.84
2022-08-17T09:19:03.865Z,97716.53
2022-08-17T09:22:00.671Z,97710.97
2022-08-17T09:25:24.032Z,97710.47
2022-08-17T09:28:14.204Z,97707.38
2022-08-17T09:31:11.824Z,97693.50
2022-08-17T09:33:59.428Z,97698.25
2022-08-17T09:37:03.781Z,97704.59
2022-08-17T09:40:23.909Z,97684.50
2022-08-17T09:43:24.687Z,97703.69
2022-08-17T09:46:38.980Z,97693.25
2022-08-17T09:49:41.677Z,97690.13
2022-08-17T09:52:35.320Z,97687.84
2022-08-17T09:55:23.913Z,97689.47
2022-08-17T09:58:28.967Z,97691.84
2022-08-17T10:01:44.059Z,97691.03
2022-08-17T10:05:06.029Z,97685.53
2022-08-17T10:08:07.013Z,97688.63
2022-08-17T10:11:10.049Z,97692.63
2022-08-17T10:14:36.228Z,97674.34
2022-08-17T10:17:19.305Z,97680.53
2022-08-17T10:20:12.008Z,97677.53
2022-08-17T10:23:25.925Z,97673.00
2022-08-17T10:26:22.755Z,97666.22
2022-08-17T10:29:14.299Z,97672.75
2022-08-17T10:32:18.762Z,97668.94
2022-08-17T10:35:21.233Z,97673.56
2022-08-17T10:38:41.937Z,97668.75
2022-08-17T10:41:45.357Z,97673.94
2022-08-17T10:44:46.681Z,97668.81
2022-08-17T10:48:15.669Z,97655.19
2022-08-17T10:51:10.919Z,97656.84
2022-08-17T10:54:09.856Z,97656.84
2022-08-17T10:57:06.009Z,97650.09
2022-08-17T10:59:48.736Z,97654.50
2022-08-17T11:02:56.672Z,97650.38
2022-08-17T11:06:03.172Z,97649.72
2022-08-17T11:09:12.917Z,97642.53
2022-08-17T11:12:22.095Z,97644.13
2022-08-17T11:15:32.023Z,97639.34
2022-08-17T11:18:29.071Z,97638.16
2022-08-17T11:21:18.028Z,97633.78
2022-08-17T11:24:36.209Z,97632.94
2022-08-17T11:27:38.029Z,97629.81
2022-08-17T11:30:43.492Z,97623.41
2022-08-17T11:34:06.821Z,97630.22
2022-08-17T11:37:24.873Z,97626.59
2022-08-17T11:40:25.248Z,97624.25
2022-08-17T11:43:17.933Z,97621.06
2022-08-17T11:46:29.737Z,97620.59
2022-08-17T11:50:02.284Z,97618.66
2022-08-17T11:53:02.810Z,97619.47
2022-08-17T11:55:51.475Z,97612.28
2022-08-17T11:58:53.062Z,97620.69
2022-08-17T12:01:56.838Z,97621.03
2022-08-17T12:04:48.078Z,97617.88
2022-08-17T12:07:33.458Z,97621.06
2022-08-17T12:10:25.037Z,97620.28
2022-08-17T12:13:19.302Z,97631.41
2022-08-17T12:16:02.021Z,97627.78
2022-08-17T12:19:20.885Z,97639.00
2022-08-17T12:22:30.020Z,97632.59
2022-08-17T12:25:40.337Z,97635.75
2022-08-17T12:28:46.109Z,97638.09
2022-08-17T12:31:45.776Z,97640.16
2022-08-17T12:35:01.781Z,97635.41
2022-08-17T12:37:48.532Z,97634.59
2022-08-17T12:40:41.678Z,97638.97
2022-08-17T12:43:34.444Z,97635.38
2022-08-17T12:46:26.013Z,97629.81
2022-08-17T12:49:31.657Z,97632.19
2022-08-17T12:52:35.691Z,97635.78
2022-08-17T12:55:37.625Z,97640.13
2022-08-17T12:58:38.936Z,97643.34
2022-08-17T13:01:26.179Z,97645.75
2022-08-17T13:04:14.886Z,97650.44
2022-08-17T13:06:59.921Z,97651.28
2022-08-17T13:09:57.997Z,97642.41
2022-08-17T13:12:49.925Z,97639.31
2022-08-17T13:15:50.641Z,97650.47
2022-08-17T13:18:56.779Z,97652.47
2022-08-17T13:21:45.185Z,97653.66
2022-08-17T13:24:42.712Z,97656.81
2022-08-17T13:27:35.015Z,97663.19
2022-08-17T13:30:20.583Z,97655.59
2022-08-17T13:33:12.000Z,97669.56
2022-08-17T13:36:04.986Z,97675.09
2022-08-17T13:38:55.179Z,97684.25
2022-08-17T13:41:43.672Z,97679.06
2022-08-17T13:44:40.031Z,97683.75
2022-08-17T13:47:34.691Z,97688.53
2022-08-17T13:50:30.018Z,97695.72
2022-08-17T13:53:33.174Z,97689.69
2022-08-17T13:56:39.536Z,97700.13
2022-08-17T13:59:53.106Z,97692.53
2022-08-17T14:02:42.749Z,97698.91
2022-08-17T14:05:32.031Z,97706.00
2022-08-17T14:08:14.226Z,97704.63
2022-08-17T14:11:06.785Z,97699.59
2022-08-17T14:13:56.024Z,97702.44
2022-08-17T14:16:48.691Z,97711.06
2022-08-17T14:19:31.979Z,97716.97
2022-08-17T14:22:31.661Z,97709.91
2022-08-17T14:25:15.967Z,97714.69
2022-08-17T14:28:05.783Z,97725.81
2022-08-17T14:30:49.020Z,97720.19
2022-08-17T14:33:38.043Z,97729.91
2022-08-17T14:36:20.460Z,97734.91
2022-08-17T14:39:09.062Z,97740.00
2022-08-17T14:42:00.964Z,97728.97
2022-08-17T14:44:50.043Z,97733.53
2022-08-17T14:47:38.950Z,97734.97
2022-08-17T14:50:28.850Z,97740.25
2022-08-17T14:53:13.063Z,97744.53
2022-08-17T14:56:09.121Z,97748.59
2022-08-17T14:59:03.914Z,97748.09
2022-08-17T15:01:55.057Z,97745.44
2022-08-17T15:04:45.737Z,97745.28
2022-08-17T15:07:30.755Z,97744.66
2022-08-17T15:10:20.764Z,97754.13
2022-08-17T15:13:10.085Z,97746.25
2022-08-17T15:15:52.355Z,97749.25
2022-08-17T15:18:43.618Z,97751.66
2022-08-17T15:21:24.922Z,97751.59
2022-08-17T15:24:14.102Z,97754.50
2022-08-17T15:26:56.527Z,97759.59
2022-08-17T15:29:45.288Z,97768.34
2022-08-17T15:32:39.255Z,97771.16
2022-08-17T15:35:28.976Z,97774.75
2022-08-17T15:38:15.221Z,97780.19
2022-08-17T15:41:05.690Z,97779.31
2022-08-17T15:43:54.761Z,97786.66
2022-08-17T15:46:38.264Z,97787.50
2022-08-17T15:49:27.979Z,97797.13
2022-08-17T15:52:48.102Z,97798.22
2022-08-17T15:55:31.667Z,97799.97
2022-08-17T15:58:21.068Z,97805.41
2022-08-17T16:02:16.269Z,97812.13
2022-08-17T16:04:31.662Z,97816.41
2022-08-17T16:07:13.973Z,97815.34
2022-08-17T16:10:04.677Z,97817.28
2022-08-17T16:12:54.931Z,97823.91
2022-08-17T16:15:37.313Z,97815.19
2022-08-17T16:18:26.007Z,97823.56
2022-08-17T16:21:43.203Z,97829.13
2022-08-17T16:24:32.013Z,97827.75
2022-08-17T16:27:14.528Z,97825.09
2022-08-17T16:30:02.738Z,97822.31
2022-08-17T16:32:51.976Z,97822.38
2022-08-17T16:35:34.153Z,97828.72
2022-08-17T16:38:22.663Z,97827.06
2022-08-17T16:41:13.820Z,97834.53
2022-08-17T16:44:02.672Z,97835.66
2022-08-17T16:46:52.789Z,97834.44
2022-08-17T16:49:37.332Z,97830.34
2022-08-17T16:52:33.964Z,97826.53
2022-08-17T16:55:18.329Z,97829.63
2022-08-17T16:58:12.685Z,97829.09
2022-08-17T17:01:01.200Z,97832.63
2022-08-17T17:03:48.021Z,97826.94
2022-08-17T17:06:46.934Z,97828.34
2022-08-17T17:09:43.909Z,97825.34
2022-08-17T17:13:02.041Z,97820.19
2022-08-17T17:16:12.999Z,97818.94
2022-08-17T17:19:34.398Z,97817.72
2022-08-17T17:22:23.792Z,97825.97
2022-08-17T17:25:35.000Z,97815.97
2022-08-17T17:28:23.991Z,97813.41
2022-08-17T17:31:47.039Z,97808.34
2022-08-17T17:34:30.006Z,97801.94
2022-08-17T17:37:28.080Z,97803.75
2022-08-17T17:40:17.047Z,97791.63
2022-08-17T17:43:20.496Z,97804.31
2022-08-17T17:46:28.512Z,97802.38
2022-08-17T17:49:15.449Z,97808.59
2022-08-17T17:52:19.594Z,97803.09
2022-08-17T17:55:26.999Z,97801.47
2022-08-17T17:58:48.881Z,97801.56
2022-08-17T18:02:07.969Z,97795.88
2022-08-17T18:05:09.820Z,97801.75
2022-08-17T18:08:35.288Z,97799.72
2022-08-17T18:11:33.088Z,97794.75
2022-08-17T18:14:39.450Z,97794.19
2022-08-17T18:17:27.782Z,97793.56
2022-08-17T18:20:12.049Z,97796.75
2022-08-17T18:23:00.751Z,97799.09
2022-08-17T18:25:49.169Z,97797.75
2022-08-17T18:28:50.733Z,97788.97
2022-08-17T18:31:34.170Z,97789.34
2022-08-17T18:34:46.581Z,97787.03
2022-08-17T18:37:37.421Z,97793.88
2022-08-17T18:40:25.976Z,97779.63
2022-08-17T18:43:53.103Z,97771.13
2022-08-17T18:46:44.178Z,97771.22
2022-08-17T18:49:34.648Z,97771.34
2022-08-17T18:52:39.829Z,97775.97
2022-08-17T18:55:22.042Z,97772.88
2022-08-17T18:58:28.006Z,97770.75
2022-08-17T19:01:41.930Z,97764.88
2022-08-17T19:04:37.678Z,97775.97
2022-08-17T19:07:35.732Z,97775.22
2022-08-17T19:10:46.952Z,97765.38
2022-08-17T19:14:11.978Z,97771.53
2022-08-17T19:17:00.035Z,97773.44
2022-08-17T19:20:11.341Z,97780.56
2022-08-17T19:23:13.381Z,97769.59
2022-08-17T19:26:00.970Z,97770.50
2022-08-17T19:29:00.992Z,97766.94
2022-08-17T19:31:42.923Z,97765.19
2022-08-17T19:34:34.481Z,97767.41
2022-08-17T19:37:43.116Z,97778.41
2022-08-17T19:41:00.934Z,97763.66
2022-08-17T19:44:01.141Z,97761.34
2022-08-17T19:47:36.677Z,97761.47
2022-08-17T19:50:54.252Z,97761.34
2022-08-17T19:54:07.155Z,97755.78
2022-08-17T19:57:15.759Z,97759.81
2022-08-17T20:00:20.903Z,97748.31
2022-08-17T20:03:27.868Z,97745.97
2022-08-17T20:06:19.986Z,97745.56
2022-08-17T20:09:18.993Z,97734.03
2022-08-17T20:12:18.728Z,97735.00
2022-08-17T20:15:11.096Z,97727.84
2022-08-17T20:18:00.998Z,97739.34
2022-08-17T20:21:19.862Z,97736.75
2022-08-17T20:24:34.328Z,97729.91
2022-08-17T20:27:31.294Z,97728.25
2022-08-17T20:30:45.002Z,97719.19
2022-08-17T20:33:45.013Z,97721.44
2022-08-17T20:36:33.997Z,97707.59
2022-08-17T20:39:41.412Z,97715.59
2022-08-17T20:42:29.993Z,97710.38
2022-08-17T20:45:36.900Z,97699.69
2022-08-17T20:48:38.658Z,97697.84
2022-08-17T20:52:01.688Z,97692.06
2022-08-17T20:54:55.147Z,97692.88
2022-08-17T20:57:47.016Z,97691.06
2022-08-17T21:00:39.036Z,97684.81
2022-08-17T21:03:49.104Z,97681.16
2022-08-17T21:06:33.202Z,97683.00
2022-08-17T21:09:27.750Z,97679.88
2022-08-17T21:12:10.529Z,97682.31
2022-08-17T21:15:37.747Z,97695.22
2022-08-17T21:18:26.766Z,97688.78
2022-08-17T21:21:33.805Z,97682.28
2022-08-17T21:24:34.084Z,97677.97
2022-08-17T21:27:36.999Z,97667.94
2022-08-17T21:30:55.615Z,97672.22
2022-08-17T21:33:48.002Z,97671.88
2022-08-17T21:36:29.968Z,97665.50
2022-08-17T21:39:23.991Z,97668.03
2022-08-17T21:42:14.220Z,97667.16
2022-08-17T21:45:05.718Z,97658.91
2022-08-17T21:47:53.151Z,97656.03
2022-08-17T21:50:42.001Z,97649.84
2022-08-17T21:53:37.423Z,97648.41
2022-08-17T21:56:34.992Z,97649.91
2022-08-17T21:59:26.915Z,97653.88
2022-08-17T22:02:13.733Z,97653.16
2022-08-17T22:05:16.875Z,97642.44
2022-08-17T22:08:16.685Z,97645.88
2022-08-17T22:11:16.027Z,97643.44
2022-08-17T22:14:05.991Z,97646.31
2022-08-17T22:16:49.735Z,97654.94
2022-08-17T22:19:39.307Z,97648.28
2022-08-17T22:22:35.887Z,97643.38
2022-08-17T22:25:29.776Z,97650.03
2022-08-17T22:28:18.013Z,97650.53
2022-08-17T22:31:14.627Z,97643.38
2022-08-17T22:34:17.598Z,97649.25
2022-08-17T22:37:28.864Z,97640.88
2022-08-17T22:40:11.097Z,97645.28
2022-08-17T22:43:00.736Z,97643.69
2022-08-17T22:45:52.510Z,97636.97
2022-08-17T22:48:40.636Z,97643.28
2022-08-17T22:51:30.339Z,97646.13
2022-08-17T22:54:44.990Z,97644.94
2022-08-17T22:57:47.454Z,97651.06
2022-08-17T23:00:47.629Z,97648.66
2022-08-17T23:03:42.839Z,97641.94
2022-08-17T23:06:41.924Z,97641.38
2022-08-17T23:09:37.829Z,97646.97
2022-08-17T23:12:34.989Z,97646.75
2022-08-17T23:15:27.907Z,97647.88
2022-08-17T23:18:10.657Z,97650.09
2022-08-17T23:21:00.002Z,97653.06
2022-08-17T23:23:42.077Z,97655.41
2022-08-17T23:26:37.662Z,97648.50
2022-08-17T23:29:22.329Z,97653.03
2022-08-17T23:32:06.715Z,97658.25
2022-08-17T23:34:58.711Z,97661.34
2022-08-17T23:37:49.006Z,97665.81
2022-08-17T23:40:31.279Z,97662.63
2022-08-17T23:43:25.228Z,97672.19
2022-08-17T23:46:15.737Z,97671.28
2022-08-17T23:48:57.844Z,97670.44
2022-08-17T23:51:51.729Z,97674.38
2022-08-17T23:54:44.620Z,97677.19
2022-08-17T23:57:36.218Z,97668.72
